PUC weather

Carbon County Regional/Buck Davis Field
Price, Utah, United States

Public forecast

Using degrees Fahrenheit for public forecast. Weather courtesy of forecast.io.

Current aviation weather report (METAR) for Carbon County Regional/Buck Davis Field

Retrieved 2020/01/25 15:53 UTC (53 minutes ago):

KPUC 251553Z AUTO 00000KT 1/4SM FZFG VV001 M07/M09 A3019 RMK AO2 SLP293 T10721089 PWINO FZRANO

Closest aviation forecast (TAF) to Carbon County Regional/Buck Davis Field

Closest forecast is Provo Municipal Airport, 57.7 nm (106.8 km) NW. Retrieved 2020/01/25 12:42 UTC (4 hours ago):

TAF KPVU 251140Z 2512/2612 VRB05KT 4SM BR BCFG SCT005 BKN040 TEMPO 2512/2515 1/4SM FG OVC003 FM251700 VRB04KT P6SM SCT040 BKN080 FM260300 VRB03KT 3SM BR BCFG SCT010 BKN040